Aeroporto :
LOGIN :

Iscrizione | Disclaimer

   EN    FR    IT 

 










Sommario :    VFR   VFR Marginale   IFR   IFR Intensivo   IFR Molto Intensivo
Visibilità : 
Base nubi : 
>= 8 km
>= 3000ft
5 / 8 km
1000 / 3000 ft
1500m / 5 km
500 / 1000 ft
800 / 1500m
200 / 500 ft
< 800m
< 200 ft
Simboli :   Temporali  Nebbia  Neve Forte  Precipitazioni Forti  Vento > 20 kt
SIGMETs :   Varie  Temporali  Ghiacco  Turbolenza  Onda orograficha  Ceneri Vulcaniche







- Altitudine del aeroporto : 526 ft
- Codice IATA : LTN
- Carte del aeroporto


EGGW - London Luton

ULTIMO METAR :
  • 220950Z AUTO 16005KT 140V200 9999 //////TCU 19/16 Q1003

METARs OBSOLETI :
  • 220920Z AUTO 16005KT 9999 //////CB 18/16 Q1003
  • 220850Z AUTO 16004KT 130V190 9999 NCD 17/15 Q1003
  • 220820Z AUTO 14006KT 9999 -RA NCD 17/15 Q1003
  • 220750Z AUTO 14005KT 9999 //////TCU 17/14 Q1003
  • 220720Z AUTO 13007KT 9999 NCD 16/14 Q1003

TAF COR TAF EGGW
Valido dal 22 a 07 ore il 23 a 06 ore UTC


220725Z 2207/2306 12013KT 9999 SCT025
TEMPO 2207/2208 7000 SHRA
PROB30
TEMPO 2207/2208 4000 +SHRA
BECMG 2210/2213 20010KT
TEMPO 2210/2214 6000 SHRA RA
PROB40
TEMPO 2210/2213 16015G25KT 3000 +SHRA BKN007 BKN018CB
PROB30
TEMPO 2302/2306 8000 BKN006
ATIS : +44 1582 395 204
Nessun NOTAM noto per questo aeroporto.



MetMap, La meteo Aeronautica in un colpo d'occhio ! - Copyright ORBIFLY Dicembre 2007 - Disclaimer

ORBIFLY MET'MAP TEAM :

Programmazione e sviluppo : Alexandra Zaïnal
Concezione e sviluppo : Baudouin d'Aumeries
Co-Programmazione e sviluppo : Marc-Olivier Méhu
Supporto tecnico e logistico : Manuel Goepfert
Aiuto per la traduzione : Arnaldo La Scala

Contatto : metmap@orbifly.com




FONTI E CREDITI :

   NOAA